PWSweather.com
Personal Weather Stations
Station Observations
WATERF01
WaterfordIE

WaterfordIE

Lat: 52.2412507, Lon: -7.1414691

Elevation: 65

Station Type: Davis Vantage Vue

www.waterfordweather.com

High Low Average
Temperature 41.9°F5.5°C 28.4°F-2.0°C 35.2°F1.8°C
Dew Point 41.1°F5.1°C 27.3°F-2.6°C 33.9°F1.1°C
Winds 4.6 mph 7.4 kmh Calm Calm Calm SSWCalm SSW
Wind Gusts 8.1 mph13.0 kmh -- 1.0 mph1.6 kmh
Humidity 97% 91% 95%
Pressure 29.69 in1005.4 mb 29.48 in998.3 mb -
Precipitation 0.15 in3.8 mm - -
Hour Temp Dew Point Humidity Winds Wind Gusts Pressure Precip Precip Rate Daily Precip Total
12:00 AM 33.5°F0.8°C 31.7°F-0.2°C 93% Calm Calm -- 29.68 in1005.1 mb - 0.00 in0.0 mm 0.00 in0.0 mm
12:10 AM 33.0°F0.6°C 31.5°F-0.3°C 94% 2.3 mph W3.7 kmh W 5.8 mph9.3 kmh 29.68 in1005.1 mb - 0.00 in0.0 mm 0.00 in0.0 mm
12:20 AM 33.0°F0.6°C 31.5°F-0.3°C 94% 3.5 mph W5.6 kmh W 6.9 mph11.1 kmh 29.68 in1005.1 mb - 0.00 in0.0 mm 0.00 in0.0 mm
12:30 AM 33.4°F0.8°C 31.9°F-0.1°C 94% 4.6 mph W7.4 kmh W 8.1 mph13.0 kmh 29.68 in1005.1 mb - 0.00 in0.0 mm 0.00 in0.0 mm
12:40 AM 33.8°F1.0°C 32.0°F0.0°C 93% 1.2 mph W1.9 kmh W 2.3 mph3.7 kmh 29.68 in1005.1 mb - 0.00 in0.0 mm 0.00 in0.0 mm
12:50 AM 34.1°F1.2°C 32.3°F0.2°C 93% 3.5 mph WNW5.6 kmh WNW 6.9 mph11.1 kmh 29.68 in1005.1 mb - 0.00 in0.0 mm 0.00 in0.0 mm
01:00 AM 34.0°F1.1°C 32.2°F0.1°C 93% 4.6 mph NW7.4 kmh NW 8.1 mph13.0 kmh 29.68 in1005.1 mb - 0.00 in0.0 mm 0.00 in0.0 mm
01:10 AM 34.1°F1.2°C 32.0°F0.0°C 92% 2.3 mph WNW3.7 kmh WNW 5.8 mph9.3 kmh 29.68 in1005.1 mb - 0.00 in0.0 mm 0.00 in0.0 mm
01:20 AM 33.7°F0.9°C 31.9°F-0.1°C 93% 2.3 mph WNW3.7 kmh WNW 6.9 mph11.1 kmh 29.68 in1005.1 mb - 0.00 in0.0 mm 0.00 in0.0 mm
01:30 AM 33.3°F0.7°C 31.5°F-0.3°C 93% 3.5 mph WNW5.6 kmh WNW 5.8 mph9.3 kmh 29.67 in1004.7 mb - 0.00 in0.0 mm 0.00 in0.0 mm
01:40 AM 33.0°F0.6°C 31.2°F-0.4°C 93% 3.5 mph W5.6 kmh W 5.8 mph9.3 kmh 29.67 in1004.7 mb - 0.00 in0.0 mm 0.00 in0.0 mm
01:50 AM 33.1°F0.6°C 31.6°F-0.2°C 94% 2.3 mph WNW3.7 kmh WNW 5.8 mph9.3 kmh 29.67 in1004.7 mb - 0.00 in0.0 mm 0.00 in0.0 mm
02:00 AM 33.2°F0.7°C 31.7°F-0.2°C 94% 1.2 mph NW1.9 kmh NW 4.6 mph7.4 kmh 29.67 in1004.7 mb - 0.00 in0.0 mm 0.00 in0.0 mm
02:10 AM 33.2°F0.7°C 31.4°F-0.3°C 93% 2.3 mph NW3.7 kmh NW 5.8 mph9.3 kmh 29.67 in1004.7 mb - 0.00 in0.0 mm 0.00 in0.0 mm
02:20 AM 33.3°F0.7°C 31.5°F-0.3°C 93% 2.3 mph WNW3.7 kmh WNW 5.8 mph9.3 kmh 29.67 in1004.7 mb - 0.00 in0.0 mm 0.00 in0.0 mm
02:30 AM 33.0°F0.6°C 31.2°F-0.4°C 93% 2.3 mph WNW3.7 kmh WNW 5.8 mph9.3 kmh 29.67 in1004.7 mb - 0.00 in0.0 mm 0.00 in0.0 mm
02:40 AM 33.1°F0.6°C 31.3°F-0.4°C 93% 1.2 mph W1.9 kmh W 2.3 mph3.7 kmh 29.67 in1004.7 mb - 0.00 in0.0 mm 0.00 in0.0 mm
02:50 AM 32.9°F0.5°C 31.1°F-0.5°C 93% Calm Calm 2.3 mph3.7 kmh 29.67 in1004.7 mb - 0.00 in0.0 mm 0.00 in0.0 mm
03:00 AM 33.1°F0.6°C 31.3°F-0.4°C 93% Calm Calm -- 29.67 in1004.7 mb - 0.00 in0.0 mm 0.00 in0.0 mm
03:10 AM 32.9°F0.5°C 31.1°F-0.5°C 93% 1.2 mph WNW1.9 kmh WNW 5.8 mph9.3 kmh 29.67 in1004.7 mb - 0.00 in0.0 mm 0.00 in0.0 mm
03:20 AM 32.9°F0.5°C 31.1°F-0.5°C 93% 1.2 mph W1.9 kmh W 2.3 mph3.7 kmh 29.67 in1004.7 mb - 0.00 in0.0 mm 0.00 in0.0 mm
03:30 AM 32.7°F0.4°C 30.9°F-0.6°C 93% Calm Calm -- 29.67 in1004.7 mb - 0.00 in0.0 mm 0.00 in0.0 mm
03:40 AM 32.4°F0.2°C 30.9°F-0.6°C 94% Calm Calm -- 29.67 in1004.7 mb - 0.00 in0.0 mm 0.00 in0.0 mm
03:50 AM 32.2°F0.1°C 30.7°F-0.7°C 94% Calm Calm -- 29.67 in1004.7 mb - 0.00 in0.0 mm 0.00 in0.0 mm
04:00 AM 32.0°F0.0°C 30.5°F-0.8°C 94% Calm Calm 2.3 mph3.7 kmh 29.67 in1004.7 mb - 0.00 in0.0 mm 0.00 in0.0 mm
04:10 AM 32.9°F0.5°C 31.4°F-0.3°C 94% Calm Calm -- 29.67 in1004.7 mb - 0.00 in0.0 mm 0.00 in0.0 mm
04:20 AM 33.2°F0.7°C 31.4°F-0.3°C 93% Calm Calm -- 29.67 in1004.7 mb - 0.00 in0.0 mm 0.00 in0.0 mm
04:30 AM 33.4°F0.8°C 31.3°F-0.4°C 92% Calm Calm -- 29.67 in1004.7 mb - 0.00 in0.0 mm 0.00 in0.0 mm
04:40 AM 33.3°F0.7°C 31.5°F-0.3°C 93% Calm Calm 2.3 mph3.7 kmh 29.67 in1004.7 mb - 0.00 in0.0 mm 0.00 in0.0 mm
04:50 AM 34.4°F1.3°C 32.6°F0.3°C 93% 1.2 mph W1.9 kmh W 5.8 mph9.3 kmh 29.67 in1004.7 mb - 0.00 in0.0 mm 0.00 in0.0 mm
05:00 AM 34.2°F1.2°C 32.1°F0.1°C 92% Calm Calm -- 29.67 in1004.7 mb - 0.00 in0.0 mm 0.00 in0.0 mm
05:10 AM 33.2°F0.7°C 30.8°F-0.7°C 91% Calm Calm -- 29.67 in1004.7 mb - 0.00 in0.0 mm 0.00 in0.0 mm
05:20 AM 32.1°F0.1°C 30.1°F-1.1°C 92% Calm Calm -- 29.67 in1004.7 mb - 0.00 in0.0 mm 0.00 in0.0 mm
05:30 AM 31.5°F-0.3°C 29.7°F-1.3°C 93% Calm Calm -- 29.67 in1004.7 mb - 0.00 in0.0 mm 0.00 in0.0 mm
05:40 AM 31.0°F-0.6°C 29.5°F-1.4°C 94% Calm Calm -- 29.67 in1004.7 mb - 0.00 in0.0 mm 0.00 in0.0 mm
05:50 AM 30.2°F-1.0°C 28.7°F-1.8°C 94% Calm Calm -- 29.68 in1005.1 mb - 0.00 in0.0 mm 0.00 in0.0 mm
06:00 AM 30.1°F-1.1°C 28.8°F-1.8°C 95% Calm Calm -- 29.68 in1005.1 mb - 0.00 in0.0 mm 0.00 in0.0 mm
06:10 AM 30.2°F-1.0°C 28.9°F-1.7°C 95% Calm Calm -- 29.67 in1004.7 mb - 0.00 in0.0 mm 0.00 in0.0 mm
06:20 AM 29.7°F-1.3°C 28.4°F-2.0°C 95% Calm Calm -- 29.67 in1004.7 mb - 0.00 in0.0 mm 0.00 in0.0 mm
06:30 AM 29.8°F-1.2°C 28.5°F-1.9°C 95% Calm Calm -- 29.67 in1004.7 mb - 0.00 in0.0 mm 0.00 in0.0 mm
06:40 AM 30.0°F-1.1°C 28.7°F-1.8°C 95% Calm Calm -- 29.67 in1004.7 mb - 0.00 in0.0 mm 0.00 in0.0 mm
06:50 AM 30.4°F-0.9°C 29.4°F-1.4°C 96% Calm Calm -- 29.67 in1004.7 mb - 0.00 in0.0 mm 0.00 in0.0 mm
07:00 AM 30.5°F-0.8°C 29.3°F-1.5°C 95% Calm Calm -- 29.68 in1005.1 mb - 0.00 in0.0 mm 0.00 in0.0 mm
07:10 AM 29.4°F-1.4°C 28.2°F-2.1°C 95% Calm Calm -- 29.67 in1004.7 mb - 0.00 in0.0 mm 0.00 in0.0 mm
07:20 AM 28.8°F-1.8°C 27.5°F-2.5°C 95% Calm Calm -- 29.67 in1004.7 mb - 0.00 in0.0 mm 0.00 in0.0 mm
07:30 AM 28.5°F-1.9°C 27.3°F-2.6°C 95% Calm Calm -- 29.67 in1004.7 mb - 0.00 in0.0 mm 0.00 in0.0 mm
07:40 AM 28.4°F-2.0°C 27.4°F-2.6°C 96% Calm Calm -- 29.67 in1004.7 mb - 0.00 in0.0 mm 0.00 in0.0 mm
07:50 AM 28.5°F-1.9°C 27.5°F-2.5°C 96% 1.2 mph NW1.9 kmh NW 2.3 mph3.7 kmh 29.67 in1004.7 mb - 0.00 in0.0 mm 0.00 in0.0 mm
08:00 AM 28.8°F-1.8°C 27.8°F-2.3°C 96% Calm Calm -- 29.66 in1004.4 mb - 0.00 in0.0 mm 0.00 in0.0 mm
08:10 AM 28.8°F-1.8°C 27.8°F-2.3°C 96% Calm Calm -- 29.66 in1004.4 mb - 0.00 in0.0 mm 0.00 in0.0 mm
08:20 AM 28.9°F-1.7°C 27.9°F-2.3°C 96% Calm Calm -- 29.66 in1004.4 mb - 0.00 in0.0 mm 0.00 in0.0 mm
08:30 AM 29.3°F-1.5°C 28.3°F-2.1°C 96% Calm Calm -- 29.67 in1004.7 mb - 0.00 in0.0 mm 0.00 in0.0 mm
08:40 AM 29.5°F-1.4°C 28.5°F-1.9°C 96% Calm Calm -- 29.67 in1004.7 mb - 0.00 in0.0 mm 0.00 in0.0 mm
08:50 AM 29.0°F-1.7°C 28.0°F-2.2°C 96% Calm Calm -- 29.67 in1004.7 mb - 0.00 in0.0 mm 0.00 in0.0 mm
09:00 AM 29.2°F-1.6°C 28.2°F-2.1°C 96% Calm Calm -- 29.67 in1004.7 mb - 0.00 in0.0 mm 0.00 in0.0 mm
09:10 AM 29.3°F-1.5°C 28.3°F-2.1°C 96% Calm Calm -- 29.67 in1004.7 mb - 0.00 in0.0 mm 0.00 in0.0 mm
09:20 AM 29.3°F-1.5°C 28.3°F-2.1°C 96% Calm Calm -- 29.68 in1005.1 mb - 0.00 in0.0 mm 0.00 in0.0 mm
09:30 AM 29.6°F-1.3°C 28.6°F-1.9°C 96% Calm Calm -- 29.68 in1005.1 mb - 0.00 in0.0 mm 0.00 in0.0 mm
09:40 AM 30.1°F-1.1°C 29.1°F-1.6°C 96% Calm Calm -- 29.68 in1005.1 mb - 0.00 in0.0 mm 0.00 in0.0 mm
09:50 AM 30.7°F-0.7°C 29.7°F-1.3°C 96% Calm Calm -- 29.68 in1005.1 mb - 0.00 in0.0 mm 0.00 in0.0 mm
10:00 AM 31.0°F-0.6°C 30.0°F-1.1°C 96% Calm Calm -- 29.68 in1005.1 mb - 0.00 in0.0 mm 0.00 in0.0 mm
10:10 AM 31.2°F-0.4°C 30.2°F-1.0°C 96% Calm Calm -- 29.68 in1005.1 mb - 0.00 in0.0 mm 0.00 in0.0 mm
10:20 AM 31.6°F-0.2°C 30.6°F-0.8°C 96% Calm Calm -- 29.68 in1005.1 mb - 0.00 in0.0 mm 0.00 in0.0 mm
10:30 AM 31.9°F-0.1°C 30.9°F-0.6°C 96% Calm Calm -- 29.68 in1005.1 mb - 0.00 in0.0 mm 0.00 in0.0 mm
10:40 AM 32.0°F0.0°C 31.0°F-0.6°C 96% Calm Calm -- 29.68 in1005.1 mb - 0.01 in0.3 mm 0.01 in0.3 mm
10:50 AM 32.3°F0.2°C 31.3°F-0.4°C 96% Calm Calm -- 29.68 in1005.1 mb - 0.00 in0.0 mm 0.01 in0.3 mm
11:00 AM 32.9°F0.5°C 31.9°F-0.1°C 96% Calm Calm -- 29.68 in1005.1 mb - 0.00 in0.0 mm 0.01 in0.3 mm
11:10 AM 33.3°F0.7°C 32.3°F0.2°C 96% Calm Calm -- 29.69 in1005.4 mb - 0.00 in0.0 mm 0.01 in0.3 mm
11:20 AM 33.3°F0.7°C 32.3°F0.2°C 96% Calm Calm -- 29.69 in1005.4 mb - 0.00 in0.0 mm 0.01 in0.3 mm
11:30 AM 33.4°F0.8°C 32.4°F0.2°C 96% Calm Calm -- 29.69 in1005.4 mb - 0.00 in0.0 mm 0.01 in0.3 mm
11:40 AM 33.6°F0.9°C 32.3°F0.2°C 95% Calm Calm -- 29.69 in1005.4 mb - 0.00 in0.0 mm 0.01 in0.3 mm
11:50 AM 33.7°F0.9°C 32.4°F0.2°C 95% Calm Calm -- 29.69 in1005.4 mb - 0.00 in0.0 mm 0.01 in0.3 mm
12:00 PM 33.8°F1.0°C 32.6°F0.3°C 95% Calm Calm -- 29.69 in1005.4 mb - 0.00 in0.0 mm 0.01 in0.3 mm
12:10 PM 34.0°F1.1°C 32.7°F0.4°C 95% Calm Calm -- 29.69 in1005.4 mb - 0.00 in0.0 mm 0.01 in0.3 mm
12:20 PM 34.1°F1.2°C 32.8°F0.4°C 95% Calm Calm -- 29.69 in1005.4 mb - 0.00 in0.0 mm 0.01 in0.3 mm
12:30 PM 34.4°F1.3°C 33.1°F0.6°C 95% Calm Calm -- 29.69 in1005.4 mb - 0.00 in0.0 mm 0.01 in0.3 mm
12:40 PM 34.8°F1.6°C 33.5°F0.8°C 95% Calm Calm -- 29.68 in1005.1 mb - 0.00 in0.0 mm 0.01 in0.3 mm
12:50 PM 35.5°F1.9°C 34.2°F1.2°C 95% Calm Calm -- 29.68 in1005.1 mb - 0.00 in0.0 mm 0.01 in0.3 mm
01:00 PM 36.3°F2.4°C 35.1°F1.7°C 95% Calm Calm -- 29.68 in1005.1 mb - 0.00 in0.0 mm 0.01 in0.3 mm
01:10 PM 37.2°F2.9°C 35.9°F2.2°C 95% Calm Calm -- 29.67 in1004.7 mb - 0.00 in0.0 mm 0.01 in0.3 mm
01:20 PM 38.3°F3.5°C 36.5°F2.5°C 93% 1.2 mph WNW1.9 kmh WNW 5.8 mph9.3 kmh 29.67 in1004.7 mb - 0.00 in0.0 mm 0.01 in0.3 mm
01:30 PM 38.5°F3.6°C 36.1°F2.3°C 91% Calm Calm -- 29.67 in1004.7 mb - 0.00 in0.0 mm 0.01 in0.3 mm
01:40 PM 38.6°F3.7°C 36.2°F2.3°C 91% Calm Calm -- 29.66 in1004.4 mb - 0.00 in0.0 mm 0.01 in0.3 mm
01:50 PM 38.6°F3.7°C 36.2°F2.3°C 91% Calm Calm -- 29.66 in1004.4 mb - 0.00 in0.0 mm 0.01 in0.3 mm
02:00 PM 38.7°F3.7°C 36.3°F2.4°C 91% Calm Calm -- 29.66 in1004.4 mb - 0.00 in0.0 mm 0.01 in0.3 mm
02:10 PM 38.6°F3.7°C 36.5°F2.5°C 92% Calm Calm -- 29.66 in1004.4 mb - 0.00 in0.0 mm 0.01 in0.3 mm
02:20 PM 38.5°F3.6°C 36.4°F2.4°C 92% Calm Calm -- 29.66 in1004.4 mb - 0.00 in0.0 mm 0.01 in0.3 mm
02:30 PM 38.6°F3.7°C 36.5°F2.5°C 92% Calm Calm -- 29.66 in1004.4 mb - 0.00 in0.0 mm 0.01 in0.3 mm
02:40 PM 38.6°F3.7°C 36.2°F2.3°C 91% Calm Calm -- 29.66 in1004.4 mb - 0.00 in0.0 mm 0.01 in0.3 mm
02:50 PM 38.6°F3.7°C 36.5°F2.5°C 92% Calm Calm -- 29.66 in1004.4 mb - 0.00 in0.0 mm 0.01 in0.3 mm
03:00 PM 38.5°F3.6°C 36.4°F2.4°C 92% Calm Calm -- 29.66 in1004.4 mb - 0.01 in0.3 mm 0.02 in0.5 mm
03:10 PM 38.2°F3.4°C 36.6°F2.6°C 94% Calm Calm -- 29.66 in1004.4 mb - 0.00 in0.0 mm 0.02 in0.5 mm
03:20 PM 38.1°F3.4°C 36.8°F2.7°C 95% Calm Calm -- 29.65 in1004.1 mb - 0.01 in0.3 mm 0.03 in0.8 mm
03:30 PM 37.9°F3.3°C 36.9°F2.7°C 96% Calm Calm -- 29.65 in1004.1 mb - 0.00 in0.0 mm 0.03 in0.8 mm
03:40 PM 37.8°F3.2°C 36.8°F2.7°C 96% Calm Calm -- 29.65 in1004.1 mb - 0.01 in0.3 mm 0.04 in1.0 mm
03:50 PM 37.8°F3.2°C 36.8°F2.7°C 96% Calm Calm -- 29.65 in1004.1 mb - 0.01 in0.3 mm 0.05 in1.3 mm
04:00 PM 37.7°F3.2°C 36.7°F2.6°C 96% 1.2 mph E1.9 kmh E 1.2 mph1.9 kmh 29.65 in1004.1 mb - 0.00 in0.0 mm 0.05 in1.3 mm
04:10 PM 37.7°F3.2°C 36.7°F2.6°C 96% Calm Calm -- 29.64 in1003.7 mb - 0.00 in0.0 mm 0.05 in1.3 mm
04:20 PM 37.7°F3.2°C 36.7°F2.6°C 96% Calm Calm -- 29.64 in1003.7 mb - 0.00 in0.0 mm 0.05 in1.3 mm
04:30 PM 37.7°F3.2°C 36.7°F2.6°C 96% Calm Calm -- 29.65 in1004.1 mb - 0.00 in0.0 mm 0.05 in1.3 mm
05:00 PM 37.8°F3.2°C 36.8°F2.7°C 96% 1.2 mph E1.9 kmh E 1.2 mph1.9 kmh 29.65 in1004.1 mb - 0.01 in0.3 mm 0.06 in1.5 mm
05:10 PM 37.9°F3.3°C 36.9°F2.7°C 96% Calm Calm 1.2 mph1.9 kmh 29.65 in1004.1 mb - 0.00 in0.0 mm 0.06 in1.5 mm
05:20 PM 38.0°F3.3°C 37.0°F2.8°C 96% Calm Calm 2.3 mph3.7 kmh 29.65 in1004.1 mb - 0.00 in0.0 mm 0.06 in1.5 mm
05:30 PM 38.1°F3.4°C 37.1°F2.8°C 96% Calm Calm -- 29.65 in1004.1 mb - 0.00 in0.0 mm 0.06 in1.5 mm
05:40 PM 38.2°F3.4°C 37.2°F2.9°C 96% Calm Calm -- 29.65 in1004.1 mb - 0.00 in0.0 mm 0.06 in1.5 mm
05:50 PM 38.1°F3.4°C 37.1°F2.8°C 96% Calm Calm -- 29.66 in1004.4 mb - 0.00 in0.0 mm 0.06 in1.5 mm
06:00 PM 38.1°F3.4°C 37.1°F2.8°C 96% Calm Calm -- 29.65 in1004.1 mb - 0.01 in0.3 mm 0.07 in1.8 mm
06:10 PM 38.0°F3.3°C 37.0°F2.8°C 96% Calm Calm -- 29.65 in1004.1 mb - 0.00 in0.0 mm 0.07 in1.8 mm
06:20 PM 38.1°F3.4°C 37.1°F2.8°C 96% Calm Calm 2.3 mph3.7 kmh 29.64 in1003.7 mb - 0.00 in0.0 mm 0.07 in1.8 mm
06:30 PM 38.4°F3.6°C 37.4°F3.0°C 96% Calm Calm -- 29.64 in1003.7 mb - 0.00 in0.0 mm 0.07 in1.8 mm
06:40 PM 38.6°F3.7°C 37.6°F3.1°C 96% Calm Calm -- 29.64 in1003.7 mb - 0.00 in0.0 mm 0.07 in1.8 mm
06:50 PM 38.7°F3.7°C 37.7°F3.2°C 96% Calm Calm -- 29.64 in1003.7 mb - 0.00 in0.0 mm 0.07 in1.8 mm
07:00 PM 38.7°F3.7°C 37.7°F3.2°C 96% Calm Calm -- 29.63 in1003.4 mb - 0.00 in0.0 mm 0.07 in1.8 mm
07:10 PM 38.6°F3.7°C 37.6°F3.1°C 96% Calm Calm -- 29.63 in1003.4 mb - 0.00 in0.0 mm 0.07 in1.8 mm
07:20 PM 38.6°F3.7°C 37.6°F3.1°C 96% Calm Calm -- 29.63 in1003.4 mb - 0.00 in0.0 mm 0.07 in1.8 mm
07:30 PM 38.8°F3.8°C 37.8°F3.2°C 96% Calm Calm -- 29.63 in1003.4 mb - 0.00 in0.0 mm 0.07 in1.8 mm
07:40 PM 38.9°F3.8°C 37.9°F3.3°C 96% Calm Calm -- 29.63 in1003.4 mb - 0.00 in0.0 mm 0.07 in1.8 mm
07:50 PM 39.0°F3.9°C 38.0°F3.3°C 96% Calm Calm -- 29.63 in1003.4 mb - 0.01 in0.3 mm 0.08 in2.0 mm
08:00 PM 39.2°F4.0°C 38.2°F3.4°C 96% Calm Calm -- 29.62 in1003.0 mb - 0.00 in0.0 mm 0.08 in2.0 mm
08:10 PM 39.4°F4.1°C 38.6°F3.7°C 97% Calm Calm -- 29.62 in1003.0 mb - 0.00 in0.0 mm 0.08 in2.0 mm
08:20 PM 39.2°F4.0°C 38.4°F3.6°C 97% Calm Calm -- 29.61 in1002.7 mb - 0.00 in0.0 mm 0.08 in2.0 mm
08:30 PM 39.3°F4.1°C 38.6°F3.7°C 97% Calm Calm -- 29.60 in1002.4 mb - 0.00 in0.0 mm 0.08 in2.0 mm
08:40 PM 39.5°F4.2°C 38.7°F3.7°C 97% 3.5 mph SE5.6 kmh SE 5.8 mph9.3 kmh 29.59 in1002.0 mb - 0.00 in0.0 mm 0.08 in2.0 mm
08:50 PM 39.9°F4.4°C 39.1°F3.9°C 97% 1.2 mph SE1.9 kmh SE 2.3 mph3.7 kmh 29.59 in1002.0 mb - 0.00 in0.0 mm 0.08 in2.0 mm
09:00 PM 40.1°F4.5°C 39.3°F4.1°C 97% Calm Calm -- 29.59 in1002.0 mb - 0.00 in0.0 mm 0.08 in2.0 mm
09:10 PM 40.1°F4.5°C 39.3°F4.1°C 97% Calm Calm -- 29.58 in1001.7 mb - 0.00 in0.0 mm 0.08 in2.0 mm
09:20 PM 40.1°F4.5°C 39.3°F4.1°C 97% Calm Calm -- 29.58 in1001.7 mb - 0.00 in0.0 mm 0.08 in2.0 mm
09:30 PM 40.3°F4.6°C 39.5°F4.2°C 97% Calm Calm -- 29.57 in1001.4 mb - 0.00 in0.0 mm 0.08 in2.0 mm
09:40 PM 40.3°F4.6°C 39.5°F4.2°C 97% Calm Calm -- 29.57 in1001.4 mb - 0.02 in0.5 mm 0.10 in2.5 mm
09:50 PM 40.6°F4.8°C 39.8°F4.3°C 97% Calm Calm -- 29.56 in1001.0 mb - 0.00 in0.0 mm 0.10 in2.5 mm
10:00 PM 40.8°F4.9°C 40.1°F4.5°C 97% Calm Calm -- 29.55 in1000.7 mb - 0.01 in0.3 mm 0.11 in2.8 mm
10:10 PM 41.1°F5.1°C 40.3°F4.6°C 97% Calm Calm -- 29.54 in1000.3 mb - 0.01 in0.3 mm 0.12 in3.0 mm
10:20 PM 41.2°F5.1°C 40.4°F4.7°C 97% Calm Calm 2.3 mph3.7 kmh 29.53 in1000.0 mb - 0.01 in0.3 mm 0.13 in3.3 mm
10:30 PM 41.5°F5.3°C 40.7°F4.8°C 97% Calm Calm -- 29.53 in1000.0 mb - 0.03 in0.8 mm 0.15 in3.8 mm
10:40 PM 41.7°F5.4°C 40.9°F4.9°C 97% Calm Calm -- 29.53 in1000.0 mb - 0.00 in0.0 mm 0.15 in3.8 mm
10:50 PM 41.7°F5.4°C 40.9°F4.9°C 97% Calm Calm -- 29.51 in999.3 mb - 0.00 in0.0 mm 0.15 in3.8 mm
11:00 PM 41.7°F5.4°C 40.9°F4.9°C 97% Calm Calm -- 29.50 in999.0 mb - 0.00 in0.0 mm 0.15 in3.8 mm
11:10 PM 41.9°F5.5°C 41.1°F5.1°C 97% Calm Calm -- 29.50 in999.0 mb - 0.00 in0.0 mm 0.15 in3.8 mm
11:20 PM 41.8°F5.4°C 41.0°F5.0°C 97% Calm Calm -- 29.49 in998.6 mb - 0.00 in0.0 mm 0.15 in3.8 mm
11:30 PM 41.8°F5.4°C 41.0°F5.0°C 97% Calm Calm -- 29.49 in998.6 mb - 0.00 in0.0 mm 0.15 in3.8 mm
11:40 PM 41.6°F5.3°C 40.8°F4.9°C 97% Calm Calm -- 29.49 in998.6 mb - 0.00 in0.0 mm 0.15 in3.8 mm
11:50 PM 41.9°F5.5°C 41.1°F5.1°C 97% Calm Calm -- 29.48 in998.3 mb - 0.00 in0.0 mm 0.15 in3.8 mm